createdAt,value
2019-01-04T00:02:58.026Z,1.70
2019-01-04T00:08:03.003Z,1.70
2019-01-04T00:13:19.168Z,1.70
2019-01-04T00:18:22.022Z,1.60
2019-01-04T00:23:24.914Z,1.50
2019-01-04T00:28:28.431Z,1.40
2019-01-04T00:33:31.999Z,1.30
2019-01-04T00:38:35.823Z,1.20
2019-01-04T00:43:41.746Z,1.10
2019-01-04T00:48:45.427Z,1.10
2019-01-04T00:53:48.223Z,1.20
2019-01-04T00:59:27.747Z,1.20
2019-01-04T01:05:00.222Z,1.10
2019-01-04T01:10:57.355Z,1.10
2019-01-04T01:16:52.866Z,1.10
2019-01-04T01:22:37.062Z,1.10
2019-01-04T01:28:26.376Z,1.30
2019-01-04T01:33:54.306Z,1.30
2019-01-04T01:39:49.088Z,1.40
2019-01-04T01:45:28.002Z,1.30
2019-01-04T01:51:24.620Z,1.40
2019-01-04T01:56:30.416Z,1.40
2019-01-04T02:01:33.617Z,1.50
2019-01-04T02:06:36.411Z,1.60
2019-01-04T02:11:39.156Z,1.60
2019-01-04T02:16:42.431Z,1.60
2019-01-04T02:21:46.754Z,1.50
2019-01-04T02:26:50.571Z,1.40
2019-01-04T02:31:54.076Z,1.30
2019-01-04T02:36:57.564Z,1.20
2019-01-04T02:42:02.359Z,1.10
2019-01-04T02:47:05.738Z,1.00
2019-01-04T02:52:09.883Z,0.90
2019-01-04T02:57:14.652Z,0.90
2019-01-04T03:02:17.414Z,0.80
2019-01-04T03:07:20.375Z,0.80
2019-01-04T03:12:25.091Z,0.80
2019-01-04T03:17:28.294Z,0.80
2019-01-04T03:22:33.081Z,0.80
2019-01-04T03:27:36.051Z,0.70
2019-01-04T03:32:38.922Z,0.70
2019-01-04T03:37:42.649Z,0.60
2019-01-04T03:42:48.562Z,0.60
2019-01-04T03:47:52.168Z,0.40
2019-01-04T03:52:55.009Z,0.40
2019-01-04T03:57:59.568Z,0.40
2019-01-04T04:03:06.232Z,0.40
2019-01-04T04:08:13.223Z,0.40
2019-01-04T04:13:35.367Z,0.40
2019-01-04T04:18:38.523Z,0.40
2019-01-04T04:23:42.116Z,0.40
2019-01-04T04:28:57.923Z,0.50
2019-01-04T04:34:00.782Z,0.50
2019-01-04T04:39:07.524Z,0.50
2019-01-04T04:44:10.702Z,0.50
2019-01-04T04:49:14.231Z,0.60
2019-01-04T04:54:20.451Z,0.60
2019-01-04T04:59:26.328Z,0.60
2019-01-04T05:04:50.046Z,0.60
2019-01-04T05:09:56.711Z,0.60
2019-01-04T05:15:20.107Z,0.60
2019-01-04T05:20:23.571Z,0.70
2019-01-04T05:25:28.096Z,0.70
2019-01-04T05:30:31.393Z,0.80
2019-01-04T05:35:34.234Z,0.90
2019-01-04T05:40:37.097Z,0.90
2019-01-04T05:45:43.003Z,1.00
2019-01-04T05:50:51.812Z,1.10
2019-01-04T05:55:55.128Z,1.20
2019-01-04T06:01:00.889Z,1.30
2019-01-04T06:06:03.904Z,1.40
2019-01-04T06:11:07.701Z,1.40
2019-01-04T06:16:11.203Z,1.50
2019-01-04T06:21:19.236Z,1.50
2019-01-04T06:26:22.249Z,1.50
2019-01-04T06:31:25.693Z,1.50
2019-01-04T06:36:38.178Z,1.50
2019-01-04T06:41:40.989Z,1.50
2019-01-04T06:47:22.221Z,1.50
2019-01-04T06:52:25.133Z,1.40
2019-01-04T06:57:28.727Z,1.50
2019-01-04T07:02:31.539Z,1.50
2019-01-04T07:07:34.752Z,1.60
2019-01-04T07:12:38.663Z,1.60
2019-01-04T07:17:43.334Z,1.60
2019-01-04T07:22:50.399Z,1.70
2019-01-04T07:27:54.246Z,1.70
2019-01-04T07:32:57.101Z,1.80
2019-01-04T07:38:00.643Z,1.80
2019-01-04T07:43:16.421Z,1.90
2019-01-04T07:48:17.787Z,1.90
2019-01-04T07:53:21.191Z,2.00
2019-01-04T07:58:24.709Z,1.90
2019-01-04T08:03:27.596Z,2.00
2019-01-04T08:08:31.298Z,2.00
2019-01-04T08:13:39.094Z,2.00
2019-01-04T08:18:43.166Z,2.10
2019-01-04T08:23:48.891Z,2.10
2019-01-04T08:28:51.717Z,2.20
2019-01-04T08:33:58.751Z,2.20
2019-01-04T08:39:02.124Z,2.30
2019-01-04T08:44:05.123Z,2.30
2019-01-04T08:49:07.911Z,2.50
2019-01-04T08:54:12.658Z,2.50
2019-01-04T08:59:16.182Z,2.60
2019-01-04T09:04:19.043Z,2.70
2019-01-04T09:09:23.110Z,2.80
2019-01-04T09:14:28.346Z,2.90
2019-01-04T09:19:31.047Z,2.90
2019-01-04T09:24:34.338Z,3.00
2019-01-04T09:29:37.435Z,3.00
2019-01-04T09:34:40.148Z,3.00
2019-01-04T09:39:42.999Z,3.10
2019-01-04T09:44:46.138Z,3.10
2019-01-04T09:49:48.859Z,3.20
2019-01-04T09:54:54.591Z,3.20
2019-01-04T09:59:58.186Z,3.30
2019-01-04T10:05:00.790Z,3.30
2019-01-04T10:10:03.936Z,3.30
2019-01-04T10:15:09.266Z,3.20
2019-01-04T10:20:13.725Z,3.20
2019-01-04T10:25:17.162Z,3.20
2019-01-04T10:30:24.151Z,3.20
2019-01-04T10:35:27.655Z,3.30
2019-01-04T10:40:30.358Z,3.30
2019-01-04T10:45:33.186Z,3.30
2019-01-04T10:50:36.886Z,3.30
2019-01-04T10:55:39.926Z,3.30
2019-01-04T11:00:44.411Z,3.20
2019-01-04T11:05:47.091Z,3.20
2019-01-04T11:10:49.887Z,3.20
2019-01-04T11:15:52.983Z,3.10
2019-01-04T11:20:58.263Z,3.20
2019-01-04T11:26:09.095Z,3.20
2019-01-04T11:31:33.387Z,3.20
2019-01-04T11:36:48.958Z,3.30
2019-01-04T11:42:14.975Z,3.50
2019-01-04T11:47:49.797Z,3.70
2019-01-04T11:53:06.447Z,3.80
2019-01-04T11:58:10.487Z,3.80
2019-01-04T12:03:13.183Z,3.70
2019-01-04T12:08:18.306Z,3.60
2019-01-04T12:13:22.101Z,3.50
2019-01-04T12:18:24.943Z,3.50
2019-01-04T12:23:30.138Z,3.40
2019-01-04T12:28:37.764Z,3.50
2019-01-04T12:33:41.230Z,3.50
2019-01-04T12:38:45.005Z,3.50
2019-01-04T12:43:51.778Z,3.40
2019-01-04T12:48:55.262Z,3.40
2019-01-04T12:53:58.791Z,3.40
2019-01-04T12:59:01.767Z,3.40
2019-01-04T13:04:05.163Z,3.40
2019-01-04T13:09:12.229Z,3.40
2019-01-04T13:14:15.843Z,3.40
2019-01-04T13:19:25.489Z,3.40
2019-01-04T13:24:24.199Z,3.40
2019-01-04T13:29:27.851Z,3.50
2019-01-04T13:34:39.843Z,3.50
2019-01-04T13:39:43.352Z,3.60
2019-01-04T13:44:47.782Z,3.60
2019-01-04T13:49:50.595Z,3.70
2019-01-04T13:54:56.198Z,3.60
2019-01-04T13:59:59.785Z,3.60
2019-01-04T14:05:02.806Z,3.50
2019-01-04T14:10:08.095Z,3.40
2019-01-04T14:15:15.231Z,3.40
2019-01-04T14:20:18.094Z,3.40
2019-01-04T14:25:20.888Z,3.50
2019-01-04T14:30:23.788Z,3.50
2019-01-04T14:35:26.623Z,3.50
2019-01-04T14:40:47.870Z,3.50
2019-01-04T14:45:54.003Z,3.50
2019-01-04T14:50:57.064Z,3.40
2019-01-04T14:56:02.835Z,3.30
2019-01-04T15:01:06.515Z,3.30
2019-01-04T15:06:29.788Z,3.20
2019-01-04T15:17:43.874Z,3.10
2019-01-04T15:23:05.102Z,3.10
2019-01-04T15:28:26.951Z,3.00
2019-01-04T15:33:29.743Z,3.00
2019-01-04T15:38:36.382Z,3.00
2019-01-04T15:43:56.499Z,3.00
2019-01-04T15:48:59.847Z,3.00
2019-01-04T15:54:12.043Z,3.10
2019-01-04T15:59:15.822Z,3.00
2019-01-04T16:04:18.671Z,3.10
2019-01-04T16:09:22.063Z,3.10
2019-01-04T16:14:35.030Z,3.10
2019-01-04T16:19:38.323Z,3.10
2019-01-04T16:24:44.074Z,3.20
2019-01-04T16:29:47.626Z,3.20
2019-01-04T16:34:50.668Z,3.20
2019-01-04T16:40:11.957Z,3.20
2019-01-04T16:45:15.203Z,3.20
2019-01-04T16:50:19.814Z,3.30
2019-01-04T16:55:22.796Z,3.20
2019-01-04T17:00:44.115Z,3.20
2019-01-04T17:05:47.802Z,3.20
2019-01-04T17:10:50.944Z,3.10
2019-01-04T17:15:54.254Z,3.00
2019-01-04T17:21:05.870Z,2.90
2019-01-04T17:26:09.467Z,2.90
2019-01-04T17:31:13.026Z,2.90
2019-01-04T17:36:17.360Z,3.00
2019-01-04T17:41:21.134Z,3.00
2019-01-04T17:46:24.438Z,3.10
2019-01-04T17:51:28.162Z,3.10
2019-01-04T17:56:31.406Z,3.10
2019-01-04T18:01:35.155Z,3.10
2019-01-04T18:06:46.854Z,3.10
2019-01-04T18:11:50.886Z,3.20
2019-01-04T18:17:02.975Z,3.10
2019-01-04T18:22:08.671Z,3.10
2019-01-04T18:27:29.426Z,3.10
2019-01-04T18:32:37.083Z,3.20
2019-01-04T18:37:48.974Z,3.20
2019-01-04T18:42:52.220Z,3.20
2019-01-04T18:47:55.006Z,3.20
2019-01-04T18:52:57.827Z,3.30
2019-01-04T18:58:01.485Z,3.30
2019-01-04T19:03:05.063Z,3.40
2019-01-04T19:08:17.223Z,3.40
2019-01-04T19:13:26.938Z,3.30
2019-01-04T19:18:29.887Z,3.30
2019-01-04T19:23:33.614Z,3.30
2019-01-04T19:28:39.379Z,3.30
2019-01-04T19:33:56.661Z,3.30
2019-01-04T19:39:00.108Z,3.30
2019-01-04T19:44:06.087Z,3.30
2019-01-04T19:49:28.773Z,3.30
2019-01-04T19:54:32.631Z,3.30
2019-01-04T19:59:44.555Z,3.30
2019-01-04T20:04:47.600Z,3.30
2019-01-04T20:11:01.477Z,3.30
2019-01-04T20:16:36.692Z,3.30
2019-01-04T20:22:12.197Z,3.30
2019-01-04T20:27:33.390Z,3.40
2019-01-04T20:33:05.030Z,3.30
2019-01-04T20:38:57.389Z,3.30
2019-01-04T20:44:19.468Z,3.30
2019-01-04T20:50:09.754Z,3.20
2019-01-04T20:55:37.308Z,3.30
2019-01-04T21:01:14.521Z,3.30
2019-01-04T21:06:54.270Z,3.30
2019-01-04T21:12:15.406Z,3.30
2019-01-04T21:17:50.014Z,3.30
2019-01-04T21:23:12.611Z,3.30
2019-01-04T21:28:59.342Z,3.30
2019-01-04T21:34:22.220Z,3.30
2019-01-04T21:39:43.297Z,3.40
2019-01-04T21:45:16.082Z,3.40
2019-01-04T21:50:51.349Z,3.40
2019-01-04T21:56:14.980Z,3.40
2019-01-04T22:01:39.062Z,3.50
2019-01-04T22:07:23.408Z,3.50
2019-01-04T22:13:02.943Z,3.40
2019-01-04T22:18:42.825Z,3.40
2019-01-04T22:24:19.971Z,3.50
2019-01-04T22:29:50.111Z,3.50
2019-01-04T22:35:21.040Z,3.50
2019-01-04T22:40:53.944Z,3.60
2019-01-04T22:46:15.260Z,3.60
2019-01-04T22:51:52.687Z,3.60
2019-01-04T22:57:30.711Z,3.60
2019-01-04T23:03:09.888Z,3.60
2019-01-04T23:08:35.376Z,3.60
2019-01-04T23:14:05.494Z,3.70
2019-01-04T23:19:34.254Z,3.70
2019-01-04T23:25:14.790Z,3.70
2019-01-04T23:30:55.947Z,3.70
2019-01-04T23:36:20.501Z,3.70
2019-01-04T23:41:41.448Z,3.70
2019-01-04T23:47:02.865Z,3.70
2019-01-04T23:52:25.158Z,3.70
2019-01-04T23:57:58.442Z,3.80
